sensor_id;sensor_type;location;lat;lon;timestamp;temperature;humidity
5059;DHT22;2548;52.050;11.036;2023-04-03T00:00:43;0.50;99.90
5059;DHT22;2548;52.050;11.036;2023-04-03T00:03:10;0.50;99.90
5059;DHT22;2548;52.050;11.036;2023-04-03T00:05:38;0.40;99.90
5059;DHT22;2548;52.050;11.036;2023-04-03T00:08:05;0.40;99.90
5059;DHT22;2548;52.050;11.036;2023-04-03T00:10:34;0.40;99.90
5059;DHT22;2548;52.050;11.036;2023-04-03T00:13:04;0.40;99.90
5059;DHT22;2548;52.050;11.036;2023-04-03T00:15:32;0.40;99.90
5059;DHT22;2548;52.050;11.036;2023-04-03T00:17:59;0.40;99.90
5059;DHT22;2548;52.050;11.036;2023-04-03T00:20:27;0.30;99.90
5059;DHT22;2548;52.050;11.036;2023-04-03T00:22:55;0.20;99.90
5059;DHT22;2548;52.050;11.036;2023-04-03T00:25:22;0.20;99.90
5059;DHT22;2548;52.050;11.036;2023-04-03T00:27:50;0.20;99.90
5059;DHT22;2548;52.050;11.036;2023-04-03T00:30:20;0.20;99.90
5059;DHT22;2548;52.050;11.036;2023-04-03T00:32:48;0.20;99.90
5059;DHT22;2548;52.050;11.036;2023-04-03T00:35:17;0.20;99.90
5059;DHT22;2548;52.050;11.036;2023-04-03T00:37:45;0.20;99.90
5059;DHT22;2548;52.050;11.036;2023-04-03T00:40:14;0.20;99.90
5059;DHT22;2548;52.050;11.036;2023-04-03T00:42:43;0.10;99.90
5059;DHT22;2548;52.050;11.036;2023-04-03T00:45:28;0.10;99.90
5059;DHT22;2548;52.050;11.036;2023-04-03T00:47:57;0.00;99.90
5059;DHT22;2548;52.050;11.036;2023-04-03T00:50:27;-0.10;99.90
5059;DHT22;2548;52.050;11.036;2023-04-03T00:52:56;-0.10;99.90
5059;DHT22;2548;52.050;11.036;2023-04-03T00:55:24;-0.10;99.90
5059;DHT22;2548;52.050;11.036;2023-04-03T00:57:52;-0.10;99.90
5059;DHT22;2548;52.050;11.036;2023-04-03T01:00:21;-0.20;99.90
5059;DHT22;2548;52.050;11.036;2023-04-03T01:02:51;-0.20;99.90
5059;DHT22;2548;52.050;11.036;2023-04-03T01:05:20;-0.30;99.90
5059;DHT22;2548;52.050;11.036;2023-04-03T01:07:49;-0.40;99.90
5059;DHT22;2548;52.050;11.036;2023-04-03T01:10:18;-0.40;99.90
5059;DHT22;2548;52.050;11.036;2023-04-03T01:12:48;-0.40;99.90
5059;DHT22;2548;52.050;11.036;2023-04-03T01:15:18;-0.50;99.90
5059;DHT22;2548;52.050;11.036;2023-04-03T01:17:48;-0.50;99.90
5059;DHT22;2548;52.050;11.036;2023-04-03T01:20:50;-0.50;99.90
5059;DHT22;2548;52.050;11.036;2023-04-03T01:23:40;-0.50;99.90
5059;DHT22;2548;52.050;11.036;2023-04-03T01:26:10;-0.50;99.90
5059;DHT22;2548;52.050;11.036;2023-04-03T01:28:39;-0.50;99.90
5059;DHT22;2548;52.050;11.036;2023-04-03T01:31:13;-0.40;99.90
5059;DHT22;2548;52.050;11.036;2023-04-03T01:33:45;-0.40;99.90
5059;DHT22;2548;52.050;11.036;2023-04-03T01:36:15;-0.40;99.90
5059;DHT22;2548;52.050;11.036;2023-04-03T01:38:42;-0.50;99.90
5059;DHT22;2548;52.050;11.036;2023-04-03T01:41:10;-0.50;99.90
5059;DHT22;2548;52.050;11.036;2023-04-03T01:43:37;-0.50;99.90
5059;DHT22;2548;52.050;11.036;2023-04-03T01:46:05;-0.60;99.90
5059;DHT22;2548;52.050;11.036;2023-04-03T01:48:33;-0.70;99.90
5059;DHT22;2548;52.050;11.036;2023-04-03T01:51:02;-0.70;99.90
5059;DHT22;2548;52.050;11.036;2023-04-03T01:53:30;-0.60;99.90
5059;DHT22;2548;52.050;11.036;2023-04-03T01:55:57;-0.60;99.90
5059;DHT22;2548;52.050;11.036;2023-04-03T01:58:25;-0.60;99.90
5059;DHT22;2548;52.050;11.036;2023-04-03T02:00:53;-0.70;99.90
5059;DHT22;2548;52.050;11.036;2023-04-03T02:03:22;-0.70;99.90
5059;DHT22;2548;52.050;11.036;2023-04-03T02:05:50;-0.80;99.90
5059;DHT22;2548;52.050;11.036;2023-04-03T02:08:19;-0.80;99.90
5059;DHT22;2548;52.050;11.036;2023-04-03T02:10:47;-0.80;99.90
5059;DHT22;2548;52.050;11.036;2023-04-03T02:13:15;-0.80;99.90
5059;DHT22;2548;52.050;11.036;2023-04-03T02:15:43;-0.70;99.90
5059;DHT22;2548;52.050;11.036;2023-04-03T02:18:11;-0.60;99.90
5059;DHT22;2548;52.050;11.036;2023-04-03T02:20:39;-0.70;99.90
5059;DHT22;2548;52.050;11.036;2023-04-03T02:23:06;-0.70;99.90
5059;DHT22;2548;52.050;11.036;2023-04-03T02:25:35;-0.80;99.90
5059;DHT22;2548;52.050;11.036;2023-04-03T02:28:03;-0.80;99.90
5059;DHT22;2548;52.050;11.036;2023-04-03T02:30:30;-0.80;99.90
5059;DHT22;2548;52.050;11.036;2023-04-03T02:32:58;-0.80;99.90
5059;DHT22;2548;52.050;11.036;2023-04-03T02:35:26;-0.80;99.90
5059;DHT22;2548;52.050;11.036;2023-04-03T02:37:56;-0.80;99.90
5059;DHT22;2548;52.050;11.036;2023-04-03T02:40:24;-0.80;99.90
5059;DHT22;2548;52.050;11.036;2023-04-03T02:42:53;-0.80;99.90
5059;DHT22;2548;52.050;11.036;2023-04-03T02:45:23;-0.70;99.90
5059;DHT22;2548;52.050;11.036;2023-04-03T02:47:50;-0.80;99.90
5059;DHT22;2548;52.050;11.036;2023-04-03T02:50:18;-0.80;99.90
5059;DHT22;2548;52.050;11.036;2023-04-03T02:52:45;-0.80;99.90
5059;DHT22;2548;52.050;11.036;2023-04-03T02:55:13;-0.90;99.90
5059;DHT22;2548;52.050;11.036;2023-04-03T02:57:41;-0.90;99.90
5059;DHT22;2548;52.050;11.036;2023-04-03T03:00:11;-1.00;99.90
5059;DHT22;2548;52.050;11.036;2023-04-03T03:02:39;-1.00;99.90
5059;DHT22;2548;52.050;11.036;2023-04-03T03:05:06;-1.10;99.90
5059;DHT22;2548;52.050;11.036;2023-04-03T03:07:34;-1.00;99.90
5059;DHT22;2548;52.050;11.036;2023-04-03T03:10:02;-1.00;99.90
5059;DHT22;2548;52.050;11.036;2023-04-03T03:12:29;-1.10;99.90
5059;DHT22;2548;52.050;11.036;2023-04-03T03:14:56;-1.10;99.90
5059;DHT22;2548;52.050;11.036;2023-04-03T03:17:25;-1.10;99.90
5059;DHT22;2548;52.050;11.036;2023-04-03T03:19:53;-1.10;99.90
5059;DHT22;2548;52.050;11.036;2023-04-03T03:22:20;-1.10;99.90
5059;DHT22;2548;52.050;11.036;2023-04-03T03:24:47;-1.00;99.90
5059;DHT22;2548;52.050;11.036;2023-04-03T03:27:15;-1.10;99.90
5059;DHT22;2548;52.050;11.036;2023-04-03T03:29:43;-1.10;99.90
5059;DHT22;2548;52.050;11.036;2023-04-03T03:32:12;-1.10;99.90
5059;DHT22;2548;52.050;11.036;2023-04-03T03:34:41;-1.20;99.90
5059;DHT22;2548;52.050;11.036;2023-04-03T03:37:09;-1.20;99.90
5059;DHT22;2548;52.050;11.036;2023-04-03T03:39:36;-1.10;99.90
5059;DHT22;2548;52.050;11.036;2023-04-03T03:42:03;-1.20;99.90
5059;DHT22;2548;52.050;11.036;2023-04-03T03:44:31;-1.20;99.90
5059;DHT22;2548;52.050;11.036;2023-04-03T03:46:59;-1.20;99.90
5059;DHT22;2548;52.050;11.036;2023-04-03T03:49:27;-1.10;99.90
5059;DHT22;2548;52.050;11.036;2023-04-03T03:51:55;-1.10;99.90
5059;DHT22;2548;52.050;11.036;2023-04-03T03:54:23;-1.10;99.90
5059;DHT22;2548;52.050;11.036;2023-04-03T03:56:51;-1.20;99.90
5059;DHT22;2548;52.050;11.036;2023-04-03T03:59:18;-1.30;99.90
5059;DHT22;2548;52.050;11.036;2023-04-03T04:01:46;-1.30;99.90
5059;DHT22;2548;52.050;11.036;2023-04-03T04:04:13;-1.40;99.90
5059;DHT22;2548;52.050;11.036;2023-04-03T04:06:41;-1.40;99.90
5059;DHT22;2548;52.050;11.036;2023-04-03T04:09:11;-1.40;99.90
5059;DHT22;2548;52.050;11.036;2023-04-03T04:11:39;-1.40;99.90
5059;DHT22;2548;52.050;11.036;2023-04-03T04:14:07;-1.40;99.90
5059;DHT22;2548;52.050;11.036;2023-04-03T04:16:37;-1.40;99.90
5059;DHT22;2548;52.050;11.036;2023-04-03T04:19:09;-1.40;99.90
5059;DHT22;2548;52.050;11.036;2023-04-03T04:21:38;-1.30;99.90
5059;DHT22;2548;52.050;11.036;2023-04-03T04:24:08;-1.30;99.90
5059;DHT22;2548;52.050;11.036;2023-04-03T04:26:38;-1.30;99.90
5059;DHT22;2548;52.050;11.036;2023-04-03T04:29:08;-1.40;99.90
5059;DHT22;2548;52.050;11.036;2023-04-03T04:31:36;-1.40;99.90
5059;DHT22;2548;52.050;11.036;2023-04-03T04:34:03;-1.50;99.90
5059;DHT22;2548;52.050;11.036;2023-04-03T04:36:31;-1.50;99.90
5059;DHT22;2548;52.050;11.036;2023-04-03T04:38:59;-1.50;99.90
5059;DHT22;2548;52.050;11.036;2023-04-03T04:41:27;-1.40;99.90
5059;DHT22;2548;52.050;11.036;2023-04-03T04:43:56;-1.50;99.90
5059;DHT22;2548;52.050;11.036;2023-04-03T04:46:24;-1.50;99.90
5059;DHT22;2548;52.050;11.036;2023-04-03T04:48:56;-1.50;99.90
5059;DHT22;2548;52.050;11.036;2023-04-03T04:51:27;-1.60;99.90
5059;DHT22;2548;52.050;11.036;2023-04-03T04:53:54;-1.50;99.90
5059;DHT22;2548;52.050;11.036;2023-04-03T04:56:22;-1.60;99.90
5059;DHT22;2548;52.050;11.036;2023-04-03T04:58:49;-1.60;99.90
5059;DHT22;2548;52.050;11.036;2023-04-03T05:01:20;-1.60;99.90
5059;DHT22;2548;52.050;11.036;2023-04-03T05:04:03;-1.60;99.90
5059;DHT22;2548;52.050;11.036;2023-04-03T05:06:31;-1.60;99.90
5059;DHT22;2548;52.050;11.036;2023-04-03T05:09:00;-1.60;99.90
5059;DHT22;2548;52.050;11.036;2023-04-03T05:11:29;-1.60;99.90
5059;DHT22;2548;52.050;11.036;2023-04-03T05:13:56;-1.60;99.90
5059;DHT22;2548;52.050;11.036;2023-04-03T05:16:26;-1.60;99.90
5059;DHT22;2548;52.050;11.036;2023-04-03T05:18:55;-1.60;99.90
5059;DHT22;2548;52.050;11.036;2023-04-03T05:21:23;-1.60;99.90
5059;DHT22;2548;52.050;11.036;2023-04-03T05:23:52;-1.50;99.90
5059;DHT22;2548;52.050;11.036;2023-04-03T05:26:20;-1.50;99.90
5059;DHT22;2548;52.050;11.036;2023-04-03T05:28:49;-1.50;99.90
5059;DHT22;2548;52.050;11.036;2023-04-03T05:31:18;-1.40;99.90
5059;DHT22;2548;52.050;11.036;2023-04-03T05:33:49;-1.40;99.90
5059;DHT22;2548;52.050;11.036;2023-04-03T05:36:18;-1.30;99.90
5059;DHT22;2548;52.050;11.036;2023-04-03T05:38:50;-1.30;99.90
5059;DHT22;2548;52.050;11.036;2023-04-03T05:41:18;-1.10;99.90
5059;DHT22;2548;52.050;11.036;2023-04-03T05:43:46;-1.10;99.90
5059;DHT22;2548;52.050;11.036;2023-04-03T05:46:17;-1.00;99.90
5059;DHT22;2548;52.050;11.036;2023-04-03T05:48:50;-0.90;99.90
5059;DHT22;2548;52.050;11.036;2023-04-03T05:51:23;-0.80;99.90
5059;DHT22;2548;52.050;11.036;2023-04-03T05:54:01;-0.70;99.90
5059;DHT22;2548;52.050;11.036;2023-04-03T05:56:30;-0.70;99.90
5059;DHT22;2548;52.050;11.036;2023-04-03T05:58:58;-0.60;99.90
5059;DHT22;2548;52.050;11.036;2023-04-03T06:01:26;-0.60;99.90
5059;DHT22;2548;52.050;11.036;2023-04-03T06:03:54;-0.60;99.90
5059;DHT22;2548;52.050;11.036;2023-04-03T06:06:24;-0.50;99.90
5059;DHT22;2548;52.050;11.036;2023-04-03T06:08:52;-0.50;99.90
5059;DHT22;2548;52.050;11.036;2023-04-03T06:11:19;-0.50;99.90
5059;DHT22;2548;52.050;11.036;2023-04-03T06:13:48;-0.40;99.90
5059;DHT22;2548;52.050;11.036;2023-04-03T06:16:17;-0.40;99.90
5059;DHT22;2548;52.050;11.036;2023-04-03T06:18:45;-0.30;99.90
5059;DHT22;2548;52.050;11.036;2023-04-03T06:21:14;-0.20;99.90
5059;DHT22;2548;52.050;11.036;2023-04-03T06:23:41;-0.20;99.90
5059;DHT22;2548;52.050;11.036;2023-04-03T06:26:09;-0.10;99.90
5059;DHT22;2548;52.050;11.036;2023-04-03T06:28:36;0.00;99.90
5059;DHT22;2548;52.050;11.036;2023-04-03T06:31:04;0.10;99.90
5059;DHT22;2548;52.050;11.036;2023-04-03T06:33:31;0.20;99.90
5059;DHT22;2548;52.050;11.036;2023-04-03T06:35:59;0.20;99.90
5059;DHT22;2548;52.050;11.036;2023-04-03T06:38:27;0.20;99.90
5059;DHT22;2548;52.050;11.036;2023-04-03T06:40:55;0.30;99.90
5059;DHT22;2548;52.050;11.036;2023-04-03T06:43:23;0.40;99.90
5059;DHT22;2548;52.050;11.036;2023-04-03T06:45:50;0.50;99.90
5059;DHT22;2548;52.050;11.036;2023-04-03T06:48:18;0.50;99.90
5059;DHT22;2548;52.050;11.036;2023-04-03T06:50:45;0.60;99.90
5059;DHT22;2548;52.050;11.036;2023-04-03T06:53:13;0.80;99.90
5059;DHT22;2548;52.050;11.036;2023-04-03T06:55:42;0.80;99.90
5059;DHT22;2548;52.050;11.036;2023-04-03T06:58:09;0.90;99.90
5059;DHT22;2548;52.050;11.036;2023-04-03T07:00:37;1.00;99.90
5059;DHT22;2548;52.050;11.036;2023-04-03T07:03:04;1.10;99.90
5059;DHT22;2548;52.050;11.036;2023-04-03T07:05:31;1.20;99.90
5059;DHT22;2548;52.050;11.036;2023-04-03T07:07:59;1.30;99.90
5059;DHT22;2548;52.050;11.036;2023-04-03T07:10:26;1.40;99.90
5059;DHT22;2548;52.050;11.036;2023-04-03T07:12:55;1.50;99.90
5059;DHT22;2548;52.050;11.036;2023-04-03T07:15:23;1.60;99.90
5059;DHT22;2548;52.050;11.036;2023-04-03T07:17:50;1.70;99.90
5059;DHT22;2548;52.050;11.036;2023-04-03T07:20:18;1.90;99.90
5059;DHT22;2548;52.050;11.036;2023-04-03T07:22:45;1.90;99.90
5059;DHT22;2548;52.050;11.036;2023-04-03T07:25:13;2.00;99.90
5059;DHT22;2548;52.050;11.036;2023-04-03T07:27:41;2.10;99.90
5059;DHT22;2548;52.050;11.036;2023-04-03T07:30:11;2.30;99.90
5059;DHT22;2548;52.050;11.036;2023-04-03T07:32:40;2.40;99.90
5059;DHT22;2548;52.050;11.036;2023-04-03T07:35:07;2.50;99.90
5059;DHT22;2548;52.050;11.036;2023-04-03T07:37:35;2.60;99.90
5059;DHT22;2548;52.050;11.036;2023-04-03T07:40:04;2.70;99.90
5059;DHT22;2548;52.050;11.036;2023-04-03T07:42:32;2.70;99.90
5059;DHT22;2548;52.050;11.036;2023-04-03T07:44:59;2.90;99.90
5059;DHT22;2548;52.050;11.036;2023-04-03T07:47:28;3.00;99.90
5059;DHT22;2548;52.050;11.036;2023-04-03T07:49:56;3.10;99.90
5059;DHT22;2548;52.050;11.036;2023-04-03T07:52:24;3.20;99.90
5059;DHT22;2548;52.050;11.036;2023-04-03T07:54:51;3.20;99.90
5059;DHT22;2548;52.050;11.036;2023-04-03T07:57:19;3.30;99.90
5059;DHT22;2548;52.050;11.036;2023-04-03T07:59:46;3.50;99.90
5059;DHT22;2548;52.050;11.036;2023-04-03T08:02:14;3.60;99.90
5059;DHT22;2548;52.050;11.036;2023-04-03T08:04:42;3.70;99.90
5059;DHT22;2548;52.050;11.036;2023-04-03T08:07:10;3.80;99.90
5059;DHT22;2548;52.050;11.036;2023-04-03T08:09:37;3.90;99.90
5059;DHT22;2548;52.050;11.036;2023-04-03T08:12:05;4.00;99.90
5059;DHT22;2548;52.050;11.036;2023-04-03T08:14:32;4.10;99.90
5059;DHT22;2548;52.050;11.036;2023-04-03T08:17:01;4.20;99.90
5059;DHT22;2548;52.050;11.036;2023-04-03T08:19:30;4.20;99.90
5059;DHT22;2548;52.050;11.036;2023-04-03T08:21:59;4.40;99.90
5059;DHT22;2548;52.050;11.036;2023-04-03T08:24:29;4.40;99.90
5059;DHT22;2548;52.050;11.036;2023-04-03T08:26:56;4.50;99.90
5059;DHT22;2548;52.050;11.036;2023-04-03T08:29:24;4.50;99.90
5059;DHT22;2548;52.050;11.036;2023-04-03T08:31:52;4.70;99.90
5059;DHT22;2548;52.050;11.036;2023-04-03T08:34:20;4.60;99.90
5059;DHT22;2548;52.050;11.036;2023-04-03T08:36:48;4.50;99.90
5059;DHT22;2548;52.050;11.036;2023-04-03T08:39:16;4.50;99.90
5059;DHT22;2548;52.050;11.036;2023-04-03T08:41:45;4.60;99.90
5059;DHT22;2548;52.050;11.036;2023-04-03T08:44:17;4.70;99.90
5059;DHT22;2548;52.050;11.036;2023-04-03T08:46:58;4.80;99.90
5059;DHT22;2548;52.050;11.036;2023-04-03T08:49:31;4.90;99.90
5059;DHT22;2548;52.050;11.036;2023-04-03T08:52:02;5.00;99.90
5059;DHT22;2548;52.050;11.036;2023-04-03T08:54:34;5.20;99.90
5059;DHT22;2548;52.050;11.036;2023-04-03T08:57:04;5.20;99.90
5059;DHT22;2548;52.050;11.036;2023-04-03T08:59:35;5.10;99.90
5059;DHT22;2548;52.050;11.036;2023-04-03T09:02:15;5.00;99.90
5059;DHT22;2548;52.050;11.036;2023-04-03T09:04:46;5.10;99.90
5059;DHT22;2548;52.050;11.036;2023-04-03T09:07:18;5.00;99.90
5059;DHT22;2548;52.050;11.036;2023-04-03T09:09:49;4.80;99.90
5059;DHT22;2548;52.050;11.036;2023-04-03T09:12:19;4.70;99.90
5059;DHT22;2548;52.050;11.036;2023-04-03T09:14:57;4.50;99.90
5059;DHT22;2548;52.050;11.036;2023-04-03T09:17:38;4.30;99.90
5059;DHT22;2548;52.050;11.036;2023-04-03T09:20:19;4.30;99.90
5059;DHT22;2548;52.050;11.036;2023-04-03T09:22:50;4.20;99.90
5059;DHT22;2548;52.050;11.036;2023-04-03T09:25:21;4.20;99.90
5059;DHT22;2548;52.050;11.036;2023-04-03T09:27:50;4.10;99.90
5059;DHT22;2548;52.050;11.036;2023-04-03T09:30:20;4.10;99.90
5059;DHT22;2548;52.050;11.036;2023-04-03T09:32:50;4.20;99.90
5059;DHT22;2548;52.050;11.036;2023-04-03T09:35:23;4.20;99.90
5059;DHT22;2548;52.050;11.036;2023-04-03T09:37:53;4.20;99.90
5059;DHT22;2548;52.050;11.036;2023-04-03T09:40:35;4.20;99.90
5059;DHT22;2548;52.050;11.036;2023-04-03T09:43:22;4.30;99.90
5059;DHT22;2548;52.050;11.036;2023-04-03T09:45:51;4.30;99.90
5059;DHT22;2548;52.050;11.036;2023-04-03T09:48:20;4.30;99.90
5059;DHT22;2548;52.050;11.036;2023-04-03T09:50:55;4.50;99.90
5059;DHT22;2548;52.050;11.036;2023-04-03T09:53:34;4.60;99.90
5059;DHT22;2548;52.050;11.036;2023-04-03T09:56:18;4.70;99.90
5059;DHT22;2548;52.050;11.036;2023-04-03T09:58:48;4.80;99.90
5059;DHT22;2548;52.050;11.036;2023-04-03T10:01:26;5.00;99.90
5059;DHT22;2548;52.050;11.036;2023-04-03T10:04:11;5.00;99.90
5059;DHT22;2548;52.050;11.036;2023-04-03T10:06:41;5.40;99.90
5059;DHT22;2548;52.050;11.036;2023-04-03T10:09:19;5.80;99.90
5059;DHT22;2548;52.050;11.036;2023-04-03T10:12:00;5.80;99.90
5059;DHT22;2548;52.050;11.036;2023-04-03T10:14:28;5.60;99.90
5059;DHT22;2548;52.050;11.036;2023-04-03T10:17:02;5.50;99.90
5059;DHT22;2548;52.050;11.036;2023-04-03T10:19:39;5.80;99.90
5059;DHT22;2548;52.050;11.036;2023-04-03T10:22:16;6.20;99.90
5059;DHT22;2548;52.050;11.036;2023-04-03T10:24:58;6.60;99.90
5059;DHT22;2548;52.050;11.036;2023-04-03T10:27:37;6.90;99.90
5059;DHT22;2548;52.050;11.036;2023-04-03T10:30:19;6.80;99.90
5059;DHT22;2548;52.050;11.036;2023-04-03T10:33:02;6.30;99.90
5059;DHT22;2548;52.050;11.036;2023-04-03T10:35:42;5.90;99.90
5059;DHT22;2548;52.050;11.036;2023-04-03T10:38:16;5.80;99.90
5059;DHT22;2548;52.050;11.036;2023-04-03T10:40:53;5.60;99.90
5059;DHT22;2548;52.050;11.036;2023-04-03T10:43:29;5.40;99.90
5059;DHT22;2548;52.050;11.036;2023-04-03T10:46:04;5.80;99.90
5059;DHT22;2548;52.050;11.036;2023-04-03T10:48:44;6.20;99.90
5059;DHT22;2548;52.050;11.036;2023-04-03T10:51:24;6.20;99.90
5059;DHT22;2548;52.050;11.036;2023-04-03T10:53:57;6.40;99.90
5059;DHT22;2548;52.050;11.036;2023-04-03T10:56:33;6.80;99.90
5059;DHT22;2548;52.050;11.036;2023-04-03T10:59:18;6.90;99.90
5059;DHT22;2548;52.050;11.036;2023-04-03T11:01:48;7.00;99.90
5059;DHT22;2548;52.050;11.036;2023-04-03T11:04:17;7.20;99.90
5059;DHT22;2548;52.050;11.036;2023-04-03T11:06:49;7.00;99.90
5059;DHT22;2548;52.050;11.036;2023-04-03T11:09:23;6.80;99.90
5059;DHT22;2548;52.050;11.036;2023-04-03T11:11:55;6.70;99.90
5059;DHT22;2548;52.050;11.036;2023-04-03T11:14:27;6.40;99.90
5059;DHT22;2548;52.050;11.036;2023-04-03T11:17:05;6.30;99.90
5059;DHT22;2548;52.050;11.036;2023-04-03T11:19:39;6.20;99.90
5059;DHT22;2548;52.050;11.036;2023-04-03T11:22:12;6.10;99.90
5059;DHT22;2548;52.050;11.036;2023-04-03T11:24:46;5.90;99.90
5059;DHT22;2548;52.050;11.036;2023-04-03T11:27:22;5.80;99.90
5059;DHT22;2548;52.050;11.036;2023-04-03T11:29:53;5.70;99.90
5059;DHT22;2548;52.050;11.036;2023-04-03T11:32:34;5.60;99.90
5059;DHT22;2548;52.050;11.036;2023-04-03T11:35:08;5.80;99.90
5059;DHT22;2548;52.050;11.036;2023-04-03T11:37:39;5.80;99.90
5059;DHT22;2548;52.050;11.036;2023-04-03T11:40:19;5.70;99.90
5059;DHT22;2548;52.050;11.036;2023-04-03T11:42:51;5.80;99.90
5059;DHT22;2548;52.050;11.036;2023-04-03T11:45:31;5.70;99.90
5059;DHT22;2548;52.050;11.036;2023-04-03T11:48:01;5.90;99.90
5059;DHT22;2548;52.050;11.036;2023-04-03T11:50:41;6.40;99.90
5059;DHT22;2548;52.050;11.036;2023-04-03T11:53:26;6.80;99.90
5059;DHT22;2548;52.050;11.036;2023-04-03T11:55:59;7.10;99.90
5059;DHT22;2548;52.050;11.036;2023-04-03T11:58:29;7.40;99.90
5059;DHT22;2548;52.050;11.036;2023-04-03T12:01:07;7.50;99.90
5059;DHT22;2548;52.050;11.036;2023-04-03T12:04:09;7.70;99.90
5059;DHT22;2548;52.050;11.036;2023-04-03T12:07:01;8.00;99.90
5059;DHT22;2548;52.050;11.036;2023-04-03T12:12:36;8.00;99.90
5059;DHT22;2548;52.050;11.036;2023-04-03T12:15:25;8.00;99.90
5059;DHT22;2548;52.050;11.036;2023-04-03T12:17:54;8.30;99.90
5059;DHT22;2548;52.050;11.036;2023-04-03T12:20:52;8.40;99.90
5059;DHT22;2548;52.050;11.036;2023-04-03T12:23:29;8.30;99.90
5059;DHT22;2548;52.050;11.036;2023-04-03T12:26:18;8.10;99.90
5059;DHT22;2548;52.050;11.036;2023-04-03T12:28:48;7.70;99.90
5059;DHT22;2548;52.050;11.036;2023-04-03T12:31:20;7.50;99.90
5059;DHT22;2548;52.050;11.036;2023-04-03T12:34:04;7.10;99.90
5059;DHT22;2548;52.050;11.036;2023-04-03T12:36:42;7.00;99.90
5059;DHT22;2548;52.050;11.036;2023-04-03T12:39:51;6.70;99.90
5059;DHT22;2548;52.050;11.036;2023-04-03T12:45:22;6.90;99.90
5059;DHT22;2548;52.050;11.036;2023-04-03T12:47:53;6.80;99.90
5059;DHT22;2548;52.050;11.036;2023-04-03T12:50:24;6.60;99.90
5059;DHT22;2548;52.050;11.036;2023-04-03T12:52:57;6.50;99.90
5059;DHT22;2548;52.050;11.036;2023-04-03T12:55:24;6.60;99.90
5059;DHT22;2548;52.050;11.036;2023-04-03T12:57:52;6.60;99.90
5059;DHT22;2548;52.050;11.036;2023-04-03T13:00:29;6.50;99.90
5059;DHT22;2548;52.050;11.036;2023-04-03T13:02:58;6.40;99.90
5059;DHT22;2548;52.050;11.036;2023-04-03T13:05:28;6.40;99.90
5059;DHT22;2548;52.050;11.036;2023-04-03T13:08:00;6.80;99.90
5059;DHT22;2548;52.050;11.036;2023-04-03T13:10:29;7.20;99.90
5059;DHT22;2548;52.050;11.036;2023-04-03T13:12:58;7.50;99.90
5059;DHT22;2548;52.050;11.036;2023-04-03T13:15:42;7.80;99.90
5059;DHT22;2548;52.050;11.036;2023-04-03T13:18:29;8.10;99.90
5059;DHT22;2548;52.050;11.036;2023-04-03T13:21:03;8.40;99.90
5059;DHT22;2548;52.050;11.036;2023-04-03T13:23:35;8.50;99.90
5059;DHT22;2548;52.050;11.036;2023-04-03T13:26:04;8.30;99.90
5059;DHT22;2548;52.050;11.036;2023-04-03T13:28:32;8.40;99.90
5059;DHT22;2548;52.050;11.036;2023-04-03T13:31:05;8.80;99.90
5059;DHT22;2548;52.050;11.036;2023-04-03T13:33:34;8.90;99.90
5059;DHT22;2548;52.050;11.036;2023-04-03T13:36:07;8.80;99.90
5059;DHT22;2548;52.050;11.036;2023-04-03T13:38:35;8.50;99.90
5059;DHT22;2548;52.050;11.036;2023-04-03T13:41:20;8.10;99.90
5059;DHT22;2548;52.050;11.036;2023-04-03T13:43:48;7.80;99.90
5059;DHT22;2548;52.050;11.036;2023-04-03T13:46:27;7.70;99.90
5059;DHT22;2548;52.050;11.036;2023-04-03T13:48:56;8.10;99.90
5059;DHT22;2548;52.050;11.036;2023-04-03T13:51:26;8.10;99.90
5059;DHT22;2548;52.050;11.036;2023-04-03T13:53:56;7.90;99.90
5059;DHT22;2548;52.050;11.036;2023-04-03T13:56:27;7.70;99.90
5059;DHT22;2548;52.050;11.036;2023-04-03T13:59:06;7.40;99.90
5059;DHT22;2548;52.050;11.036;2023-04-03T14:01:50;7.20;99.90
5059;DHT22;2548;52.050;11.036;2023-04-03T14:04:22;7.00;99.90
5059;DHT22;2548;52.050;11.036;2023-04-03T14:06:52;7.10;99.90
5059;DHT22;2548;52.050;11.036;2023-04-03T14:09:21;7.40;99.90
5059;DHT22;2548;52.050;11.036;2023-04-03T14:11:50;7.60;99.90
5059;DHT22;2548;52.050;11.036;2023-04-03T14:14:20;7.70;99.90
5059;DHT22;2548;52.050;11.036;2023-04-03T14:16:52;7.50;99.90
5059;DHT22;2548;52.050;11.036;2023-04-03T14:19:22;7.00;99.90
5059;DHT22;2548;52.050;11.036;2023-04-03T14:21:55;6.70;99.90
5059;DHT22;2548;52.050;11.036;2023-04-03T14:24:26;6.70;99.90
5059;DHT22;2548;52.050;11.036;2023-04-03T14:26:55;7.10;99.90
5059;DHT22;2548;52.050;11.036;2023-04-03T14:29:22;7.50;99.90
5059;DHT22;2548;52.050;11.036;2023-04-03T14:31:50;7.90;99.90
5059;DHT22;2548;52.050;11.036;2023-04-03T14:34:23;8.20;99.90
5059;DHT22;2548;52.050;11.036;2023-04-03T14:36:51;7.90;99.90
5059;DHT22;2548;52.050;11.036;2023-04-03T14:39:21;7.80;99.90
5059;DHT22;2548;52.050;11.036;2023-04-03T14:41:49;7.50;99.90
5059;DHT22;2548;52.050;11.036;2023-04-03T14:44:16;7.30;99.90
5059;DHT22;2548;52.050;11.036;2023-04-03T14:46:44;7.20;99.90
5059;DHT22;2548;52.050;11.036;2023-04-03T14:49:14;7.00;99.90
5059;DHT22;2548;52.050;11.036;2023-04-03T14:51:42;6.80;99.90
5059;DHT22;2548;52.050;11.036;2023-04-03T14:54:13;6.60;99.90
5059;DHT22;2548;52.050;11.036;2023-04-03T14:56:43;6.50;99.90
5059;DHT22;2548;52.050;11.036;2023-04-03T14:59:13;6.40;99.90
5059;DHT22;2548;52.050;11.036;2023-04-03T15:01:42;6.40;99.90
5059;DHT22;2548;52.050;11.036;2023-04-03T15:04:14;6.50;99.90
5059;DHT22;2548;52.050;11.036;2023-04-03T15:06:51;6.90;99.90
5059;DHT22;2548;52.050;11.036;2023-04-03T15:09:21;7.20;99.90
5059;DHT22;2548;52.050;11.036;2023-04-03T15:11:51;7.50;99.90
5059;DHT22;2548;52.050;11.036;2023-04-03T15:14:19;7.50;99.90
5059;DHT22;2548;52.050;11.036;2023-04-03T15:16:51;7.30;99.90
5059;DHT22;2548;52.050;11.036;2023-04-03T15:21:49;7.30;99.90
5059;DHT22;2548;52.050;11.036;2023-04-03T15:24:17;7.50;99.90
5059;DHT22;2548;52.050;11.036;2023-04-03T15:26:44;7.60;99.90
5059;DHT22;2548;52.050;11.036;2023-04-03T15:29:14;7.50;99.90
5059;DHT22;2548;52.050;11.036;2023-04-03T15:31:41;7.20;99.90
5059;DHT22;2548;52.050;11.036;2023-04-03T15:34:08;7.10;99.90
5059;DHT22;2548;52.050;11.036;2023-04-03T15:36:36;7.00;99.90
5059;DHT22;2548;52.050;11.036;2023-04-03T15:39:03;6.80;99.90
5059;DHT22;2548;52.050;11.036;2023-04-03T15:41:31;6.70;99.90
5059;DHT22;2548;52.050;11.036;2023-04-03T15:43:58;6.70;99.90
5059;DHT22;2548;52.050;11.036;2023-04-03T15:46:27;6.80;99.90
5059;DHT22;2548;52.050;11.036;2023-04-03T15:48:55;6.80;99.90
5059;DHT22;2548;52.050;11.036;2023-04-03T15:51:22;7.10;99.90
5059;DHT22;2548;52.050;11.036;2023-04-03T15:53:50;7.20;99.90
5059;DHT22;2548;52.050;11.036;2023-04-03T15:56:17;7.20;99.90
5059;DHT22;2548;52.050;11.036;2023-04-03T15:58:45;7.10;99.90
5059;DHT22;2548;52.050;11.036;2023-04-03T16:01:12;6.90;99.90
5059;DHT22;2548;52.050;11.036;2023-04-03T16:03:42;6.70;99.90
5059;DHT22;2548;52.050;11.036;2023-04-03T16:06:11;6.60;99.90
5059;DHT22;2548;52.050;11.036;2023-04-03T16:08:38;6.50;99.90
5059;DHT22;2548;52.050;11.036;2023-04-03T16:11:06;6.40;99.90
5059;DHT22;2548;52.050;11.036;2023-04-03T16:13:33;6.30;99.90
5059;DHT22;2548;52.050;11.036;2023-04-03T16:16:01;6.20;99.90
5059;DHT22;2548;52.050;11.036;2023-04-03T16:18:29;6.20;99.90
5059;DHT22;2548;52.050;11.036;2023-04-03T16:20:59;6.10;99.90
5059;DHT22;2548;52.050;11.036;2023-04-03T16:23:26;6.10;99.90
5059;DHT22;2548;52.050;11.036;2023-04-03T16:25:54;6.10;99.90
5059;DHT22;2548;52.050;11.036;2023-04-03T16:28:21;6.10;99.90